Terminal Aerodrome Forecast
Issued by NWS

Home | Current Version | Previous Version | Text Only | Print | Product List | Glossary On
Versions: 1 2 3 4 5 6 7 8 9 10 11 12 13 14 15 16 17 18 19 20 21
000
FTUS42 KTBW 271700 RRA
TAFLAL
TAF
KLAL 271746Z 2718/2818 02010KT P6SM VCSH OVC020
     FM272000 04010KT P6SM SCT025 BKN050 OVC100
     FM280200 03010KT P6SM VCSH SCT005 OVC015
     FM281400 05012KT P6SM VCSH SCT005 OVC015=

USA.gov is the U.S. government's official web portal to all federal, state and local government web resources and services.